LFPM 201830Z AUTO 33006KT 9999 FEW034/// SCT045/// BKN096/// ///CB 19/18 Q1005

Plan d'accès
L'aéro-club Aigle de St-Maur se situe sur la plate-forme de Lognes-Emerainville (LFPL) à environ 15 mn de la porte de Bercy par l'autoroute A4
Prendre la sortie : Emerainville
Suivre la direction : Lognes - Z.A Paris Est jusqu'à l'entrée de l'aérodrome.

Par RER: Ligne A station LOGNES puis Bus 321 direction aérodrome

Accès aeroclub Aigle  
L'entrée de l'aérodrome de Lognes Emerainville LFPL
Lognes Emerainville LFPL  
L'aéroclub Aigle se situe sur la Darse B
Aeroclub Aigle Darse B  
Second bâtiment à droite
Aeroclub Aigle Darse B